createdAt,value
2018-12-16T00:00:39.302Z,0.50
2018-12-16T00:03:08.462Z,0.50
2018-12-16T00:05:37.747Z,0.40
2018-12-16T00:08:06.911Z,0.50
2018-12-16T00:10:36.330Z,0.50
2018-12-16T00:13:05.698Z,0.40
2018-12-16T00:15:34.954Z,0.40
2018-12-16T00:18:04.321Z,0.50
2018-12-16T00:20:33.506Z,0.50
2018-12-16T00:23:02.779Z,0.50
2018-12-16T00:25:32.298Z,0.50
2018-12-16T00:28:01.491Z,0.50
2018-12-16T00:30:30.698Z,0.50
2018-12-16T00:32:59.869Z,0.50
2018-12-16T00:35:29.094Z,0.60
2018-12-16T00:37:58.266Z,0.50
2018-12-16T00:40:27.481Z,0.40
2018-12-16T00:42:56.786Z,0.50
2018-12-16T00:45:25.989Z,0.50
2018-12-16T00:47:55.166Z,0.50
2018-12-16T00:50:24.450Z,0.30
2018-12-16T00:52:53.634Z,0.30
2018-12-16T00:55:22.874Z,0.40
2018-12-16T00:57:52.034Z,0.40
2018-12-16T01:00:21.270Z,0.40
2018-12-16T01:02:50.778Z,0.50
2018-12-16T01:05:19.982Z,0.50
2018-12-16T01:07:49.254Z,0.50
2018-12-16T01:10:18.589Z,0.50
2018-12-16T01:12:47.866Z,0.50
2018-12-16T01:15:17.151Z,0.40
2018-12-16T01:17:46.412Z,0.40
2018-12-16T01:20:15.854Z,0.40
2018-12-16T01:22:45.190Z,0.40
2018-12-16T01:25:14.460Z,0.40
2018-12-16T01:27:43.654Z,0.30
2018-12-16T01:30:12.913Z,0.30
2018-12-16T01:32:42.271Z,0.30
2018-12-16T01:35:12.067Z,0.30
2018-12-16T01:37:41.383Z,0.30
2018-12-16T01:40:10.883Z,0.20
2018-12-16T01:42:40.163Z,0.20
2018-12-16T01:45:09.600Z,0.20
2018-12-16T01:47:38.790Z,0.20
2018-12-16T01:50:08.239Z,0.20
2018-12-16T01:52:37.522Z,0.20
2018-12-16T01:55:09.172Z,0.30
2018-12-16T01:57:38.472Z,0.30
2018-12-16T02:00:10.495Z,0.30
2018-12-16T02:02:39.810Z,0.10
2018-12-16T02:05:09.302Z,0.00
2018-12-16T02:07:38.643Z,0.00
2018-12-16T02:10:08.002Z,0.00
2018-12-16T02:12:37.307Z,0.10
2018-12-16T02:15:06.902Z,0.10
2018-12-16T02:17:36.114Z,0.10
2018-12-16T02:20:06.222Z,0.00
2018-12-16T02:22:35.427Z,-0.10
2018-12-16T02:25:08.015Z,-0.10
2018-12-16T02:29:18.715Z,-0.10
2018-12-16T02:31:47.917Z,-0.10
2018-12-16T02:34:17.129Z,-0.20
2018-12-16T02:36:46.954Z,-0.10
2018-12-16T02:39:16.268Z,-0.20
2018-12-16T02:41:46.618Z,-0.20
2018-12-16T02:44:15.906Z,-0.20
2018-12-16T02:46:45.683Z,-0.30
2018-12-16T02:49:14.923Z,-0.20
2018-12-16T02:51:44.231Z,-0.20
2018-12-16T02:54:13.418Z,-0.10
2018-12-16T02:56:42.630Z,-0.10
2018-12-16T02:59:11.912Z,0.00
2018-12-16T03:01:45.259Z,-0.10
2018-12-16T03:04:14.491Z,-0.10
2018-12-16T03:06:43.841Z,-0.30
2018-12-16T03:09:13.203Z,-0.20
2018-12-16T03:11:42.435Z,-0.20
2018-12-16T03:14:11.797Z,-0.30
2018-12-16T03:16:41.024Z,-0.30
2018-12-16T03:19:14.212Z,-0.30
2018-12-16T03:21:43.515Z,-0.40
2018-12-16T03:24:12.787Z,-0.30
2018-12-16T03:26:42.008Z,-0.30
2018-12-16T03:29:11.186Z,-0.20
2018-12-16T03:31:40.404Z,-0.30
2018-12-16T03:34:09.666Z,-0.40
2018-12-16T03:36:38.858Z,-0.40
2018-12-16T03:39:08.683Z,-0.40
2018-12-16T03:41:38.127Z,-0.40
2018-12-16T03:44:07.490Z,-0.40
2018-12-16T03:46:36.893Z,-0.40
2018-12-16T03:49:06.086Z,-0.40
2018-12-16T03:51:35.660Z,-0.40
2018-12-16T03:54:04.903Z,-0.40
2018-12-16T03:56:34.201Z,-0.50
2018-12-16T03:59:17.718Z,-0.50
2018-12-16T04:01:52.730Z,-0.50
2018-12-16T04:04:22.058Z,-0.40
2018-12-16T04:06:51.475Z,-0.40
2018-12-16T04:09:20.859Z,-0.50
2018-12-16T04:11:50.306Z,-0.50
2018-12-16T04:14:19.671Z,-0.50
2018-12-16T04:16:48.895Z,-0.60
2018-12-16T04:19:18.189Z,-0.60
2018-12-16T04:21:48.545Z,-0.60
2018-12-16T04:24:17.750Z,-0.60
2018-12-16T04:26:46.986Z,-0.50
2018-12-16T04:29:16.206Z,-0.50
2018-12-16T04:31:45.398Z,-0.60
2018-12-16T04:34:14.678Z,-0.70
2018-12-16T04:36:43.975Z,-0.70
2018-12-16T04:39:14.254Z,-0.70
2018-12-16T04:41:43.446Z,-0.70
2018-12-16T04:44:12.720Z,-0.70
2018-12-16T04:46:43.135Z,-0.70
2018-12-16T04:49:12.553Z,-0.70
2018-12-16T04:51:41.970Z,-0.70
2018-12-16T04:54:11.181Z,-0.70
2018-12-16T04:56:40.424Z,-0.70
2018-12-16T04:59:09.679Z,-0.60
2018-12-16T05:01:39.031Z,-0.60
2018-12-16T05:04:08.275Z,-0.70
2018-12-16T05:06:37.637Z,-0.70
2018-12-16T05:09:08.698Z,-0.70
2018-12-16T05:11:37.995Z,-0.70
2018-12-16T05:14:07.459Z,-0.80
2018-12-16T05:16:36.707Z,-0.80
2018-12-16T05:19:06.141Z,-0.70
2018-12-16T05:21:38.004Z,-0.60
2018-12-16T05:24:08.570Z,-0.50
2018-12-16T05:26:37.740Z,-0.50
2018-12-16T05:29:06.935Z,-0.70
2018-12-16T05:31:36.118Z,-0.50
2018-12-16T05:34:05.514Z,-0.60
2018-12-16T05:36:34.750Z,-0.60
2018-12-16T05:39:04.998Z,-0.50
2018-12-16T05:41:34.286Z,-0.50
2018-12-16T05:44:03.559Z,-0.50
2018-12-16T05:46:32.731Z,-0.60
2018-12-16T05:49:01.926Z,-0.50
2018-12-16T05:51:31.155Z,-0.50
2018-12-16T05:54:00.378Z,-0.50
2018-12-16T05:56:29.575Z,-0.60
2018-12-16T05:58:58.784Z,-0.60
2018-12-16T06:01:27.957Z,-0.60
2018-12-16T06:03:57.163Z,-0.60
2018-12-16T06:06:26.346Z,-0.70
2018-12-16T06:08:55.557Z,-0.80
2018-12-16T06:11:24.743Z,-0.80
2018-12-16T06:13:53.991Z,-0.80
2018-12-16T06:16:23.190Z,-0.70
2018-12-16T06:18:52.566Z,-0.70
2018-12-16T06:21:21.731Z,-0.70
2018-12-16T06:23:55.569Z,-0.80
2018-12-16T06:26:22.237Z,-0.80
2018-12-16T06:28:51.483Z,-0.80
2018-12-16T06:31:20.658Z,-0.80
2018-12-16T06:33:49.838Z,-0.80
2018-12-16T06:36:19.050Z,-0.90
2018-12-16T06:38:48.273Z,-0.80
2018-12-16T06:41:17.456Z,-0.80
2018-12-16T06:43:46.652Z,-0.80
2018-12-16T06:46:15.850Z,-0.80
2018-12-16T06:48:45.059Z,-0.80
2018-12-16T06:51:14.393Z,-0.80
2018-12-16T06:53:43.578Z,-0.80
2018-12-16T06:56:12.831Z,-0.80
2018-12-16T06:58:42.050Z,-0.90
2018-12-16T07:01:11.233Z,-0.90
2018-12-16T07:03:40.419Z,-0.90
2018-12-16T07:06:09.635Z,-0.90
2018-12-16T07:08:39.870Z,-0.90
2018-12-16T07:11:09.146Z,-0.90
2018-12-16T07:13:38.395Z,-0.90
2018-12-16T07:16:07.657Z,-0.90
2018-12-16T07:18:36.892Z,-0.90
2018-12-16T07:21:06.253Z,-0.90
2018-12-16T07:23:35.457Z,-1.00
2018-12-16T07:26:04.731Z,-0.90
2018-12-16T07:28:34.057Z,-0.90
2018-12-16T07:31:03.250Z,-0.90
2018-12-16T07:33:32.502Z,-0.90
2018-12-16T07:36:01.994Z,-1.00
2018-12-16T07:38:31.188Z,-1.00
2018-12-16T07:41:00.678Z,-1.00
2018-12-16T07:43:29.865Z,-0.90
2018-12-16T07:45:59.179Z,-1.00
2018-12-16T07:48:28.779Z,-0.90
2018-12-16T07:50:58.155Z,-0.90
2018-12-16T07:53:27.384Z,-0.90
2018-12-16T07:55:56.610Z,-0.90
2018-12-16T07:58:25.883Z,-0.90
2018-12-16T08:00:55.182Z,-0.90
2018-12-16T08:03:24.476Z,-0.80
2018-12-16T08:05:53.649Z,-0.80
2018-12-16T08:08:22.854Z,-0.70
2018-12-16T08:10:52.154Z,-0.70
2018-12-16T08:13:21.453Z,-0.60
2018-12-16T08:15:50.633Z,-0.60
2018-12-16T08:18:19.838Z,-0.70
2018-12-16T08:20:49.006Z,-0.70
2018-12-16T08:23:18.264Z,-0.80
2018-12-16T08:25:47.629Z,-0.80
2018-12-16T08:28:16.832Z,-0.70
2018-12-16T08:30:46.150Z,-0.80
2018-12-16T08:33:15.557Z,-0.80
2018-12-16T08:35:44.751Z,-0.80
2018-12-16T08:38:13.953Z,-0.90
2018-12-16T08:40:43.234Z,-0.80
2018-12-16T08:43:12.512Z,-0.90
2018-12-16T08:45:41.731Z,-0.90
2018-12-16T08:48:10.929Z,-0.90
2018-12-16T08:50:40.111Z,-0.90
2018-12-16T08:53:09.442Z,-1.00
2018-12-16T08:55:38.654Z,-0.90
2018-12-16T08:58:07.850Z,-0.80
2018-12-16T09:00:37.039Z,-0.80
2018-12-16T09:03:08.231Z,-0.70
2018-12-16T09:05:38.171Z,-0.70
2018-12-16T09:08:07.399Z,-0.80
2018-12-16T09:10:36.822Z,-0.80
2018-12-16T09:13:06.067Z,-0.80
2018-12-16T09:15:35.263Z,-0.80
2018-12-16T09:18:04.590Z,-0.80
2018-12-16T09:20:33.792Z,-0.80
2018-12-16T09:23:03.090Z,-0.80
2018-12-16T09:25:32.952Z,-0.80
2018-12-16T09:28:02.174Z,-0.70
2018-12-16T09:30:31.403Z,-0.70
2018-12-16T09:33:00.568Z,-0.70
2018-12-16T09:35:29.794Z,-0.70
2018-12-16T09:37:58.959Z,-0.70
2018-12-16T09:40:28.158Z,-0.70
2018-12-16T09:42:57.438Z,-0.70
2018-12-16T09:45:26.680Z,-0.70
2018-12-16T09:47:56.107Z,-0.70
2018-12-16T09:50:25.388Z,-0.60
2018-12-16T09:52:54.684Z,-0.60
2018-12-16T09:55:23.974Z,-0.60
2018-12-16T09:57:53.171Z,-0.50
2018-12-16T10:00:22.467Z,-0.50
2018-12-16T10:02:51.638Z,-0.50
2018-12-16T10:05:20.831Z,-0.50
2018-12-16T10:07:50.077Z,-0.50
2018-12-16T10:10:19.286Z,-0.40
2018-12-16T10:12:48.478Z,-0.50
2018-12-16T10:15:17.735Z,-0.50
2018-12-16T10:17:46.930Z,-0.50
2018-12-16T10:20:16.788Z,-0.40
2018-12-16T10:22:46.038Z,-0.50
2018-12-16T10:25:15.265Z,-0.50
2018-12-16T10:27:44.438Z,-0.50
2018-12-16T10:30:13.653Z,-0.50
2018-12-16T10:32:42.927Z,-0.50
2018-12-16T10:35:12.157Z,-0.50
2018-12-16T10:37:41.355Z,-0.50
2018-12-16T10:40:11.402Z,-0.50
2018-12-16T10:42:40.596Z,-0.40
2018-12-16T10:45:10.102Z,-0.40
2018-12-16T10:47:39.356Z,-0.40
2018-12-16T10:50:09.497Z,-0.40
2018-12-16T10:52:38.739Z,-0.40
2018-12-16T10:55:08.117Z,-0.30
2018-12-16T10:57:37.366Z,-0.30
2018-12-16T11:00:12.463Z,-0.30
2018-12-16T11:02:41.821Z,-0.30
2018-12-16T11:05:11.114Z,-0.20
2018-12-16T11:07:40.355Z,-0.20
2018-12-16T11:10:09.743Z,-0.30
2018-12-16T11:12:39.467Z,-0.30
2018-12-16T11:15:08.742Z,-0.30
2018-12-16T11:17:37.946Z,-0.30
2018-12-16T11:20:07.679Z,-0.30
2018-12-16T11:22:36.957Z,-0.30
2018-12-16T11:25:09.842Z,-0.20
2018-12-16T11:27:39.039Z,-0.30
2018-12-16T11:30:08.953Z,-0.30
2018-12-16T11:32:38.118Z,-0.30
2018-12-16T11:35:07.665Z,-0.30
2018-12-16T11:37:36.926Z,-0.30
2018-12-16T11:40:07.058Z,-0.30
2018-12-16T11:42:36.271Z,-0.30
2018-12-16T11:45:06.878Z,-0.30
2018-12-16T11:47:36.095Z,-0.30
2018-12-16T11:50:05.737Z,-0.20
2018-12-16T11:52:34.975Z,-0.20
2018-12-16T11:55:04.367Z,-0.20
2018-12-16T11:57:33.625Z,-0.20
2018-12-16T12:00:02.836Z,-0.10
2018-12-16T12:02:32.879Z,-0.10
2018-12-16T12:05:02.371Z,-0.20
2018-12-16T12:07:31.578Z,-0.10
2018-12-16T12:10:00.857Z,-0.10
2018-12-16T12:12:30.187Z,-0.10
2018-12-16T12:14:59.488Z,0.00
2018-12-16T12:17:28.720Z,0.00
2018-12-16T12:19:57.887Z,0.00
2018-12-16T12:22:27.172Z,0.00
2018-12-16T12:24:56.482Z,0.10
2018-12-16T12:27:25.688Z,0.10
2018-12-16T12:29:54.878Z,0.10
2018-12-16T12:32:24.074Z,0.10
2018-12-16T12:34:53.258Z,0.10
2018-12-16T12:37:22.570Z,0.10
2018-12-16T12:39:51.893Z,0.10
2018-12-16T12:42:21.190Z,0.10
2018-12-16T12:44:50.386Z,0.00
2018-12-16T12:47:19.674Z,-0.10
2018-12-16T12:49:49.409Z,-0.10
2018-12-16T12:52:18.607Z,-0.20
2018-12-16T12:54:47.857Z,-0.20
2018-12-16T12:57:17.082Z,-0.20
2018-12-16T12:59:46.290Z,-0.30
2018-12-16T13:02:15.774Z,-0.30
2018-12-16T13:04:44.989Z,-0.30
2018-12-16T13:07:14.274Z,-0.30
2018-12-16T13:09:44.181Z,-0.20
2018-12-16T13:12:13.527Z,-0.20
2018-12-16T13:14:42.776Z,-0.30
2018-12-16T13:17:11.987Z,-0.40
2018-12-16T13:19:41.199Z,-0.40
2018-12-16T13:22:10.486Z,-0.30
2018-12-16T13:25:55.033Z,-0.30
2018-12-16T13:28:24.221Z,-0.40
2018-12-16T13:30:53.478Z,-0.30
2018-12-16T13:33:22.683Z,-0.40
2018-12-16T13:35:51.925Z,-0.30
2018-12-16T13:38:21.158Z,-0.30
2018-12-16T13:40:50.566Z,-0.30
2018-12-16T13:43:19.758Z,-0.30
2018-12-16T13:45:49.138Z,-0.30
2018-12-16T13:48:18.461Z,-0.30
2018-12-16T13:50:47.886Z,-0.30
2018-12-16T13:53:17.151Z,-0.30
2018-12-16T13:55:46.622Z,-0.30
2018-12-16T13:58:15.870Z,-0.30
2018-12-16T14:00:45.155Z,-0.30
2018-12-16T14:03:14.382Z,-0.30
2018-12-16T14:05:46.837Z,-0.30
2018-12-16T14:08:15.046Z,-0.30
2018-12-16T14:10:45.585Z,-0.30
2018-12-16T14:13:14.939Z,-0.30
2018-12-16T14:15:44.347Z,-0.30
2018-12-16T14:18:14.449Z,-0.30
2018-12-16T14:20:43.920Z,-0.30
2018-12-16T14:23:14.273Z,-0.50
2018-12-16T14:25:48.005Z,-0.40
2018-12-16T14:28:14.798Z,-0.40
2018-12-16T14:30:44.110Z,-0.40
2018-12-16T14:33:13.307Z,-0.40
2018-12-16T14:35:42.615Z,-0.40
2018-12-16T14:38:12.128Z,-0.40
2018-12-16T14:40:41.399Z,-0.40
2018-12-16T14:43:10.609Z,-0.40
2018-12-16T14:45:39.824Z,-0.40
2018-12-16T14:48:09.112Z,-0.40
2018-12-16T14:50:38.614Z,-0.50
2018-12-16T14:53:07.810Z,-0.60
2018-12-16T14:55:37.034Z,-0.60
2018-12-16T14:58:06.528Z,-0.60
2018-12-16T15:00:35.726Z,-0.60
2018-12-16T15:03:05.407Z,-0.70
2018-12-16T15:05:34.670Z,-0.70
2018-12-16T15:08:04.033Z,-0.70
2018-12-16T15:10:33.219Z,-0.70
2018-12-16T15:13:02.419Z,-0.70
2018-12-16T15:15:31.706Z,-0.80
2018-12-16T15:18:00.914Z,-0.80
2018-12-16T15:20:30.099Z,-0.70
2018-12-16T15:22:59.509Z,-0.70
2018-12-16T15:25:28.702Z,-0.70
2018-12-16T15:27:57.901Z,-0.80
2018-12-16T15:30:27.070Z,-0.80
2018-12-16T15:32:56.326Z,-0.80
2018-12-16T15:35:25.686Z,-0.80
2018-12-16T15:37:55.011Z,-0.80
2018-12-16T15:40:24.206Z,-0.80
2018-12-16T15:42:53.423Z,-0.80
2018-12-16T15:45:22.670Z,-0.80
2018-12-16T15:47:51.898Z,-0.70
2018-12-16T15:50:21.173Z,-0.70
2018-12-16T15:52:50.410Z,-0.70
2018-12-16T15:55:19.599Z,-0.70
2018-12-16T15:57:48.795Z,-0.70
2018-12-16T16:00:17.970Z,-0.60
2018-12-16T16:02:47.190Z,-0.60
2018-12-16T16:05:16.465Z,-0.60
2018-12-16T16:07:45.714Z,-0.60
2018-12-16T16:10:15.067Z,-0.60
2018-12-16T16:12:44.331Z,-0.50
2018-12-16T16:15:13.662Z,-0.50
2018-12-16T16:17:42.886Z,-0.40
2018-12-16T16:20:12.263Z,-0.40
2018-12-16T16:22:41.463Z,-0.30
2018-12-16T16:25:10.658Z,-0.30
2018-12-16T16:27:39.929Z,-0.40
2018-12-16T16:30:09.859Z,-0.30
2018-12-16T16:32:39.355Z,-0.30
2018-12-16T16:35:08.743Z,-0.30
2018-12-16T16:37:38.523Z,-0.30
2018-12-16T16:40:08.430Z,-0.30
2018-12-16T16:42:37.710Z,-0.30
2018-12-16T16:45:07.418Z,-0.30
2018-12-16T16:47:36.644Z,-0.30
2018-12-16T16:50:06.590Z,-0.30
2018-12-16T16:52:35.839Z,-0.30
2018-12-16T16:55:05.632Z,-0.30
2018-12-16T16:57:34.814Z,-0.20
2018-12-16T17:00:04.687Z,-0.30
2018-12-16T17:02:33.943Z,-0.20
2018-12-16T17:05:03.267Z,-0.20
2018-12-16T17:07:32.538Z,-0.20
2018-12-16T17:10:01.839Z,-0.20
2018-12-16T17:12:31.034Z,-0.20
2018-12-16T17:15:00.237Z,-0.20
2018-12-16T17:17:29.430Z,-0.20
2018-12-16T17:19:58.687Z,-0.20
2018-12-16T17:22:27.909Z,-0.20
2018-12-16T17:24:57.144Z,-0.20
2018-12-16T17:27:26.326Z,-0.20
2018-12-16T17:29:55.637Z,-0.20
2018-12-16T17:32:24.855Z,-0.20
2018-12-16T17:34:54.083Z,-0.20
2018-12-16T17:37:23.346Z,-0.20
2018-12-16T17:39:52.623Z,-0.20
2018-12-16T17:42:21.808Z,-0.20
2018-12-16T17:44:51.018Z,-0.20
2018-12-16T17:47:20.207Z,-0.20
2018-12-16T17:49:49.435Z,-0.20
2018-12-16T17:52:18.818Z,-0.20
2018-12-16T17:54:48.034Z,-0.20
2018-12-16T17:57:17.274Z,-0.20
2018-12-16T17:59:46.634Z,-0.20
2018-12-16T18:02:15.878Z,-0.20
2018-12-16T18:04:45.103Z,-0.20
2018-12-16T18:07:14.298Z,-0.20
2018-12-16T18:09:43.531Z,-0.20
2018-12-16T18:12:12.798Z,-0.20
2018-12-16T18:14:42.147Z,-0.20
2018-12-16T18:17:11.349Z,-0.20
2018-12-16T18:19:40.559Z,-0.20
2018-12-16T18:22:14.038Z,-0.10
2018-12-16T18:24:41.244Z,-0.10
2018-12-16T18:27:10.452Z,-0.10
2018-12-16T18:29:46.422Z,-0.10
2018-12-16T18:32:15.617Z,-0.10
2018-12-16T18:34:44.934Z,-0.10
2018-12-16T18:37:14.239Z,-0.10
2018-12-16T18:39:43.438Z,-0.10
2018-12-16T18:42:12.798Z,-0.10
2018-12-16T18:44:42.176Z,-0.10
2018-12-16T18:47:11.350Z,-0.10
2018-12-16T18:49:40.659Z,-0.10
2018-12-16T18:52:09.930Z,-0.10
2018-12-16T18:54:39.259Z,-0.10
2018-12-16T18:57:08.450Z,-0.10
2018-12-16T18:59:37.761Z,-0.10
2018-12-16T19:02:07.036Z,-0.10
2018-12-16T19:04:36.694Z,-0.10
2018-12-16T19:07:06.100Z,-0.10
2018-12-16T19:09:35.358Z,-0.10
2018-12-16T19:12:04.863Z,0.00
2018-12-16T19:14:34.886Z,0.00
2018-12-16T19:17:04.186Z,0.00
2018-12-16T19:19:33.491Z,0.00
2018-12-16T19:22:03.054Z,0.00
2018-12-16T19:24:32.257Z,0.00
2018-12-16T19:27:01.862Z,0.00
2018-12-16T19:29:31.057Z,0.10
2018-12-16T19:32:00.330Z,0.10
2018-12-16T19:34:29.650Z,0.10
2018-12-16T19:36:58.842Z,0.10
2018-12-16T19:39:28.105Z,0.10
2018-12-16T19:41:57.449Z,0.10
2018-12-16T19:44:26.902Z,0.10
2018-12-16T19:46:56.346Z,0.10
2018-12-16T19:49:25.615Z,0.10
2018-12-16T19:51:55.183Z,0.10
2018-12-16T19:54:24.511Z,0.10
2018-12-16T19:56:53.696Z,0.20
2018-12-16T19:59:22.978Z,0.20
2018-12-16T20:01:52.266Z,0.20
2018-12-16T20:04:22.059Z,0.20
2018-12-16T20:06:51.315Z,0.20
2018-12-16T20:09:20.511Z,0.20
2018-12-16T20:11:49.688Z,0.20
2018-12-16T20:14:18.923Z,0.20
2018-12-16T20:16:48.135Z,0.30
2018-12-16T20:19:17.326Z,0.30
2018-12-16T20:21:46.555Z,0.30
2018-12-16T20:24:16.141Z,0.30
2018-12-16T20:26:45.443Z,0.30
2018-12-16T20:29:14.718Z,0.30
2018-12-16T20:31:43.978Z,0.20
2018-12-16T20:34:13.179Z,0.30
2018-12-16T20:36:42.387Z,0.30
2018-12-16T20:39:11.555Z,0.30
2018-12-16T20:41:40.882Z,0.30
2018-12-16T20:44:10.048Z,0.30
2018-12-16T20:46:39.230Z,0.30
2018-12-16T20:49:08.613Z,0.30
2018-12-16T20:51:37.821Z,0.30
2018-12-16T20:54:07.068Z,0.30
2018-12-16T20:56:36.284Z,0.30
2018-12-16T20:59:05.570Z,0.30
2018-12-16T21:01:34.784Z,0.30
2018-12-16T21:04:04.166Z,0.40
2018-12-16T21:06:34.267Z,0.30
2018-12-16T21:09:04.737Z,0.30
2018-12-16T21:11:41.424Z,0.40
2018-12-16T21:14:16.279Z,0.40
2018-12-16T21:16:50.941Z,0.40
2018-12-16T21:19:20.861Z,0.40
2018-12-16T21:21:50.159Z,0.40
2018-12-16T21:24:19.629Z,0.40
2018-12-16T21:26:49.162Z,0.40
2018-12-16T21:29:18.349Z,0.40
2018-12-16T21:31:47.554Z,0.40
2018-12-16T21:34:16.730Z,0.40
2018-12-16T21:36:45.933Z,0.40
2018-12-16T21:39:15.330Z,0.40
2018-12-16T21:41:44.538Z,0.40
2018-12-16T21:44:13.727Z,0.50
2018-12-16T21:46:42.911Z,0.50
2018-12-16T21:49:12.078Z,0.50
2018-12-16T21:51:41.275Z,0.50
2018-12-16T21:54:10.448Z,0.50
2018-12-16T21:56:39.643Z,0.60
2018-12-16T21:59:08.827Z,0.60
2018-12-16T22:01:40.818Z,0.60
2018-12-16T22:04:09.998Z,0.60
2018-12-16T22:06:39.338Z,0.60
2018-12-16T22:09:09.398Z,0.60
2018-12-16T22:11:38.598Z,0.60
2018-12-16T22:14:07.907Z,0.60
2018-12-16T22:16:37.106Z,0.70
2018-12-16T22:19:06.956Z,0.70
2018-12-16T22:21:36.141Z,0.70
2018-12-16T22:24:06.218Z,0.70
2018-12-16T22:26:35.430Z,0.70
2018-12-16T22:29:05.030Z,0.60
2018-12-16T22:31:34.235Z,0.60
2018-12-16T22:34:03.396Z,0.60
2018-12-16T22:36:32.651Z,0.60
2018-12-16T22:39:01.814Z,0.70
2018-12-16T22:41:30.998Z,0.60
2018-12-16T22:44:00.171Z,0.60
2018-12-16T22:46:29.728Z,0.70
2018-12-16T22:48:58.918Z,0.70
2018-12-16T22:51:28.239Z,0.70
2018-12-16T22:53:57.397Z,0.70
2018-12-16T22:56:26.619Z,0.70
2018-12-16T22:58:55.784Z,0.70
2018-12-16T23:01:25.216Z,0.80
2018-12-16T23:03:55.939Z,0.70
2018-12-16T23:06:25.295Z,0.80
2018-12-16T23:08:54.538Z,0.80
2018-12-16T23:11:23.727Z,0.80
2018-12-16T23:13:52.903Z,0.80
2018-12-16T23:16:22.355Z,0.80
2018-12-16T23:18:51.618Z,0.80
2018-12-16T23:21:21.026Z,0.80
2018-12-16T23:23:50.221Z,0.80
2018-12-16T23:33:18.674Z,0.80
2018-12-16T23:35:48.147Z,0.90
2018-12-16T23:38:17.430Z,0.90
2018-12-16T23:40:46.832Z,0.90
2018-12-16T23:43:16.086Z,0.90
2018-12-16T23:45:49.310Z,0.90
2018-12-16T23:48:18.722Z,0.90
2018-12-16T23:50:48.012Z,0.90
2018-12-16T23:53:17.332Z,0.90
2018-12-16T23:55:46.679Z,0.90
2018-12-16T23:58:15.975Z,0.90
